Time;durP1;ratioP1;P1;durP2;ratioP2;P2;SDS_P1;SDS_P2;PMS_P1;PMS_P2;Temp;Humidity;BMP_temperature;BMP_pressure;BME280_temperature;BME280_humidity;BME280_pressure;Samples;Min_cycle;Max_cycle;Signal;HPM_P1;HPM_P2
2022/05/09 00:02:17;;;;;;;3.58;1.63;;;;;;;16.22;52.60;101034.38;10371062;28;20052;-62
2022/05/09 00:07:19;;;;;;;4.55;1.42;;;;;;;16.21;51.92;101027.34;10370459;28;20042;-61
2022/05/09 00:12:20;;;;;;;6.63;2.50;;;;;;;16.05;52.42;101021.66;10370276;28;20381;-62
2022/05/09 00:17:22;;;;;;;5.55;2.08;;;;;;;16.09;52.36;101028.44;10372477;28;20049;-61
2022/05/09 00:22:23;;;;;;;3.10;1.55;;;;;;;16.04;52.04;101030.72;10370985;28;20081;-61
2022/05/09 00:27:25;;;;;;;3.28;1.73;;;;;;;15.82;52.99;101019.25;10413981;28;20053;-61
2022/05/09 00:32:27;;;;;;;5.70;1.45;;;;;;;15.90;52.80;101030.13;10415452;28;20049;-61
2022/05/09 00:37:28;;;;;;;4.57;1.63;;;;;;;15.92;52.61;101023.78;10414499;28;20048;-61
2022/05/09 00:42:30;;;;;;;3.95;1.65;;;;;;;15.73;53.07;101038.81;10416486;28;20042;-60
2022/05/09 00:47:31;;;;;;;2.88;1.67;;;;;;;15.57;53.29;101034.00;10417577;28;20037;-61
2022/05/09 00:52:48;;;;;;;4.55;2.25;;;;;;;15.44;53.93;101034.22;10416308;28;20064;-60
2022/05/09 00:57:58;;;;;;;2.67;1.10;;;;;;;15.24;54.48;101021.72;10416791;28;20045;-60
2022/05/09 01:03:04;;;;;;;5.05;1.85;;;;;;;15.43;54.02;101031.66;10410606;28;20056;-60
2022/05/09 01:08:06;;;;;;;4.43;1.60;;;;;;;15.27;54.02;101027.69;10413670;28;20168;-62
2022/05/09 01:13:09;;;;;;;3.60;1.40;;;;;;;15.23;53.88;101030.75;10421927;28;20262;-61
2022/05/09 01:18:12;;;;;;;2.57;1.53;;;;;;;15.11;54.63;101019.28;10423271;28;20060;-61
2022/05/09 01:23:14;;;;;;;3.92;1.45;;;;;;;15.12;54.17;101027.19;10421829;28;20280;-61
2022/05/09 01:28:16;;;;;;;4.97;1.88;;;;;;;15.06;55.02;101021.50;10422272;28;20049;-61
2022/05/09 01:33:26;;;;;;;3.28;1.55;;;;;;;15.08;54.08;101022.22;10423375;28;20803;-61
2022/05/09 01:38:36;;;;;;;5.72;1.52;;;;;;;15.10;54.38;101022.94;10415347;28;20049;-62
2022/05/09 01:43:40;;;;;;;3.75;1.15;;;;;;;15.11;54.27;101022.78;10423477;28;20052;-62
2022/05/09 01:54:02;;;;;;;3.30;1.40;;;;;;;14.94;54.24;101026.97;10413397;28;20049;-61
2022/05/09 01:59:06;;;;;;;4.65;1.63;;;;;;;14.90;54.20;101022.00;10407261;28;20689;-62
2022/05/09 02:04:08;;;;;;;4.67;1.57;;;;;;;14.77;54.86;101030.22;10384618;28;20081;-62
2022/05/09 02:09:10;;;;;;;4.63;1.70;;;;;;;14.64;54.85;101020.56;10381564;28;20113;-61
2022/05/09 02:14:11;;;;;;;2.03;1.15;;;;;;;14.63;55.82;101034.94;10378905;28;20045;-62
2022/05/09 02:19:12;;;;;;;4.72;1.23;;;;;;;14.71;55.50;101036.97;10379711;28;20132;-63
2022/05/09 02:24:14;;;;;;;3.58;2.03;;;;;;;14.66;55.48;101023.97;10377483;28;20068;-61
2022/05/09 02:29:15;;;;;;;3.55;1.40;;;;;;;14.69;55.44;101025.53;10380525;28;20613;-61
2022/05/09 02:34:17;;;;;;;3.53;1.63;;;;;;;14.67;56.08;101025.66;10381509;28;20847;-62
2022/05/09 02:39:18;;;;;;;2.85;1.45;;;;;;;14.65;55.15;101022.28;10385783;28;20091;-61
2022/05/09 02:44:19;;;;;;;1.88;1.50;;;;;;;14.62;55.66;101008.28;10395447;28;20072;-61
2022/05/09 02:49:21;;;;;;;2.83;1.50;;;;;;;14.72;55.71;101027.94;10386888;28;20085;-62
2022/05/09 02:54:22;;;;;;;3.10;1.77;;;;;;;14.63;55.56;101023.38;10394984;28;20080;-61
2022/05/09 02:59:24;;;;;;;3.80;1.60;;;;;;;14.67;55.48;101038.22;10385011;28;20132;-62
2022/05/09 03:04:41;;;;;;;2.42;1.60;;;;;;;14.61;55.77;101036.09;10375651;28;20449;-62
2022/05/09 03:09:45;;;;;;;4.45;1.90;;;;;;;14.61;56.20;101036.09;10376024;28;20048;-63
2022/05/09 03:14:47;;;;;;;6.25;2.10;;;;;;;14.61;55.67;101030.72;10374503;28;20546;-63
2022/05/09 03:19:49;;;;;;;5.07;1.45;;;;;;;14.55;56.25;101037.41;10389342;28;24662;-62
2022/05/09 03:24:50;;;;;;;4.10;2.10;;;;;;;14.37;56.58;101023.75;10374444;28;20049;-62
2022/05/09 03:29:52;;;;;;;2.70;1.80;;;;;;;14.31;55.98;101013.56;10374954;28;20813;-62
2022/05/09 03:34:54;;;;;;;2.95;2.00;;;;;;;14.40;56.46;101020.81;10372771;28;20148;-62
2022/05/09 03:39:56;;;;;;;3.13;1.77;;;;;;;14.22;56.76;101041.09;10374205;28;20041;-64
2022/05/09 03:44:57;;;;;;;3.65;2.00;;;;;;;14.24;57.19;101028.44;10374308;28;20058;-61
2022/05/09 03:49:59;;;;;;;3.95;2.00;;;;;;;14.34;56.48;101034.72;10372437;28;20057;-60
2022/05/09 03:55:01;;;;;;;3.72;2.20;;;;;;;14.30;56.29;101030.59;10371968;28;20041;-61
2022/05/09 04:00:05;;;;;;;5.00;1.90;;;;;;;14.24;56.68;101034.63;10372629;28;20067;-61
2022/05/09 04:05:14;;;;;;;4.40;2.25;;;;;;;14.30;57.07;101038.63;10371836;28;20762;-62
2022/05/09 04:10:18;;;;;;;3.70;1.90;;;;;;;14.37;57.28;101050.53;10373032;28;20081;-61
2022/05/09 04:20:40;;;;;;;2.40;1.42;;;;;;;14.09;57.23;101018.00;10376094;28;20057;-63
2022/05/09 04:25:42;;;;;;;5.82;2.50;;;;;;;14.29;57.17;101055.66;10378379;28;23569;-63
2022/05/09 04:30:46;;;;;;;5.28;2.15;;;;;;;14.19;56.71;101036.00;10372367;28;20061;-63
2022/05/09 04:35:48;;;;;;;3.25;1.77;;;;;;;14.32;56.13;101052.72;10372585;28;20582;-63
2022/05/09 04:40:54;;;;;;;3.25;1.90;;;;;;;14.34;57.29;101050.78;10369528;28;20132;-63
2022/05/09 04:45:59;;;;;;;5.30;2.30;;;;;;;14.23;57.08;101064.22;10373084;28;20052;-63
2022/05/09 04:51:01;;;;;;;4.43;2.20;;;;;;;14.29;56.90;101045.81;10377872;28;20492;-62
2022/05/09 04:56:03;;;;;;;3.38;1.92;;;;;;;14.43;56.94;101060.72;10380853;28;20049;-63
2022/05/09 05:01:04;;;;;;;4.20;2.53;;;;;;;14.48;56.78;101065.69;10378116;28;20060;-62
2022/05/09 05:06:06;;;;;;;3.47;2.38;;;;;;;14.55;56.79;101068.72;10380271;28;20041;-62
2022/05/09 05:11:07;;;;;;;3.80;2.25;;;;;;;14.66;56.72;101076.72;10377740;28;20045;-63
2022/05/09 05:16:09;;;;;;;3.78;2.40;;;;;;;14.63;56.68;101071.63;10380059;28;20655;-63
2022/05/09 05:21:12;;;;;;;4.88;2.00;;;;;;;14.54;55.67;101056.28;10377730;28;20076;-62
2022/05/09 05:26:13;;;;;;;4.30;2.05;;;;;;;14.78;56.27;101086.38;10377618;28;20046;-61
2022/05/09 05:31:18;;;;;;;5.55;2.45;;;;;;;14.82;55.96;101074.44;10376915;28;20054;-63
2022/05/09 05:36:20;;;;;;;7.18;2.90;;;;;;;14.79;55.98;101074.69;10376013;28;20041;-63
2022/05/09 05:41:22;;;;;;;4.20;2.75;;;;;;;14.92;55.84;101084.34;10376451;28;20050;-61
2022/05/09 05:46:23;;;;;;;5.93;2.60;;;;;;;15.06;55.66;101089.41;10378478;28;20055;-63
2022/05/09 05:51:26;;;;;;;6.38;2.78;;;;;;;15.17;57.08;101102.72;10374408;28;20049;-62
2022/05/09 05:56:27;;;;;;;3.67;2.40;;;;;;;15.13;56.42;101060.19;10376706;28;20125;-63
2022/05/09 06:01:29;;;;;;;3.55;2.20;;;;;;;15.38;55.29;101091.94;10375570;28;20045;-63
2022/05/09 06:06:30;;;;;;;3.70;2.10;;;;;;;15.49;55.55;101101.75;10374576;28;20049;-62
2022/05/09 06:11:31;;;;;;;5.20;2.13;;;;;;;15.62;55.45;101106.03;10376715;28;20288;-62
2022/05/09 06:16:34;;;;;;;4.65;2.10;;;;;;;15.68;54.75;101089.38;10376912;28;20132;-62
2022/05/09 06:21:37;;;;;;;4.97;2.20;;;;;;;15.92;54.55;101112.38;10402517;28;20057;-64
2022/05/09 06:26:40;;;;;;;3.47;2.15;;;;;;;16.06;55.05;101099.41;10374015;28;20520;-62
2022/05/09 06:31:42;;;;;;;3.67;2.30;;;;;;;16.25;55.17;101108.47;10374549;28;20076;-63
2022/05/09 06:36:44;;;;;;;3.05;2.03;;;;;;;16.37;53.92;101103.81;10374539;28;20041;-62
2022/05/09 06:41:45;;;;;;;6.93;2.60;;;;;;;16.48;53.55;101092.06;10383097;28;20117;-62
2022/05/09 06:46:46;;;;;;;3.10;1.95;;;;;;;16.76;52.74;101106.50;10377485;28;20055;-63
2022/05/09 06:51:48;;;;;;;4.20;2.15;;;;;;;16.84;52.21;101089.63;10371080;28;21538;-62
2022/05/09 06:56:50;;;;;;;2.72;1.77;;;;;;;16.93;52.29;101091.50;10371086;28;20050;-62
2022/05/09 07:01:51;;;;;;;5.90;2.47;;;;;;;17.09;53.05;101109.72;10371415;28;20041;-63
2022/05/09 07:06:53;;;;;;;4.65;2.08;;;;;;;17.28;51.46;101115.06;10370738;28;20696;-67
2022/05/09 07:11:54;;;;;;;4.63;2.20;;;;;;;17.34;51.25;101116.31;10371837;28;20053;-61
2022/05/09 07:16:56;;;;;;;3.65;1.92;;;;;;;17.53;50.59;101110.00;10371997;28;20059;-63
2022/05/09 07:21:57;;;;;;;3.50;1.90;;;;;;;17.81;50.64;101123.47;10369036;28;20045;-63
2022/05/09 07:26:59;;;;;;;4.28;2.70;;;;;;;18.00;49.35;101103.72;10370898;28;20053;-63
2022/05/09 07:32:00;;;;;;;6.30;2.05;;;;;;;18.16;49.08;101089.56;10370219;28;20118;-63
2022/05/09 07:37:08;;;;;;;2.38;1.55;;;;;;;18.47;48.81;101113.44;10369964;28;20049;-63
2022/05/09 07:42:11;;;;;;;4.28;2.08;;;;;;;18.65;48.01;101108.03;10369500;28;20558;-62
2022/05/09 07:47:13;;;;;;;3.07;2.03;;;;;;;18.83;47.55;101116.09;10369750;28;20808;-61
2022/05/09 07:52:14;;;;;;;4.50;2.20;;;;;;;18.90;47.69;101101.03;10370038;28;20046;-61
2022/05/09 07:57:16;;;;;;;4.22;2.50;;;;;;;18.94;47.34;101080.81;10370935;28;20487;-61
2022/05/09 08:02:17;;;;;;;4.03;2.13;;;;;;;19.24;47.07;101111.00;10370433;28;20068;-63
2022/05/09 08:07:19;;;;;;;6.65;2.28;;;;;;;19.49;47.21;101121.97;10372103;28;20753;-63
2022/05/09 08:12:21;;;;;;;3.83;2.47;;;;;;;19.69;46.83;101109.88;10376606;28;20057;-62
2022/05/09 08:17:22;;;;;;;3.97;2.03;;;;;;;19.65;46.58;101115.78;10377468;28;20097;-60
2022/05/09 08:22:28;;;;;;;2.72;2.17;;;;;;;19.97;47.00;101117.81;10370027;28;20046;-61
2022/05/09 08:27:29;;;;;;;4.20;1.98;;;;;;;20.18;46.75;101119.22;10368074;28;20645;-62
2022/05/09 08:32:31;;;;;;;5.95;2.97;;;;;;;20.37;46.56;101109.94;10366372;28;20059;-63
2022/05/09 08:37:33;;;;;;;4.57;2.40;;;;;;;20.54;46.05;101113.53;10368910;28;20120;-63
2022/05/09 08:42:48;;;;;;;4.68;2.47;;;;;;;20.74;46.82;101114.88;10369605;28;20057;-62
2022/05/09 08:48:22;;;;;;;4.50;2.33;;;;;;;21.17;45.12;101107.41;10371969;28;20427;-62
2022/05/09 08:53:25;;;;;;;5.50;2.58;;;;;;;21.38;44.58;101111.44;10368671;28;20730;-62
2022/05/09 08:58:39;;;;;;;4.07;2.78;;;;;;;21.57;44.28;101109.34;10367859;28;20810;-61
2022/05/09 09:03:49;;;;;;;5.00;2.97;;;;;;;21.65;43.17;101102.03;10370133;28;20079;-63
2022/05/09 09:08:57;;;;;;;4.10;2.72;;;;;;;21.87;43.13;101113.97;10372478;28;20053;-63
2022/05/09 09:14:20;;;;;;;5.28;2.90;;;;;;;22.16;42.50;101108.88;10368288;28;20199;-62
2022/05/09 09:19:43;;;;;;;4.57;2.42;;;;;;;22.33;42.88;101104.25;10366453;28;20064;-62
2022/05/09 09:25:21;;;;;;;3.75;2.55;;;;;;;22.76;42.12;101105.41;10365289;28;20047;-64
2022/05/09 09:30:25;;;;;;;5.13;2.40;;;;;;;23.14;42.09;101096.44;10366431;28;20053;-62
2022/05/09 09:35:26;;;;;;;;;;;;;;;23.36;41.22;101093.81;10376572;28;20116;-62
2022/05/09 09:40:28;;;;;;;4.05;2.30;;;;;;;23.84;40.48;101099.69;10375488;28;20568;-62
2022/05/09 09:45:54;;;;;;;4.30;3.15;;;;;;;23.83;40.25;101084.41;10374650;28;20067;-61
2022/05/09 09:51:06;;;;;;;5.70;2.70;;;;;;;24.43;39.03;101095.13;10373290;28;20120;-62
2022/05/09 09:56:10;;;;;;;4.47;2.97;;;;;;;24.26;39.22;101083.63;10372212;28;20120;-64
2022/05/09 10:01:20;;;;;;;3.42;2.90;;;;;;;24.31;39.70;101086.63;10372923;28;21131;-62
2022/05/09 10:06:22;;;;;;;4.88;2.80;;;;;;;25.11;38.19;101067.41;10368634;28;20060;-62
2022/05/09 10:11:28;;;;;;;7.00;3.40;;;;;;;25.63;36.49;101063.31;10371260;28;20046;-62
2022/05/09 10:16:38;;;;;;;3.53;2.53;;;;;;;25.82;35.81;101061.72;10372818;28;20052;-61
2022/05/09 10:27:02;;;;;;;3.42;2.45;;;;;;;26.91;33.63;101028.88;10371483;28;20052;-61
2022/05/09 10:32:10;;;;;;;5.63;2.63;;;;;;;27.59;33.38;101041.28;10374017;28;20045;-62
2022/05/09 10:37:24;;;;;;;3.67;2.42;;;;;;;28.08;31.65;101041.69;10372179;28;20061;-62
2022/05/09 10:42:38;;;;;;;6.68;3.05;;;;;;;28.38;31.63;101034.50;10372587;28;20764;-62
2022/05/09 10:48:21;;;;;;;4.28;3.13;;;;;;;28.40;30.85;101028.81;10370481;28;20053;-62
2022/05/09 10:53:31;;;;;;;4.75;2.30;;;;;;;28.52;30.31;101018.78;10368679;28;20065;-65
2022/05/09 10:58:47;;;;;;;4.47;2.38;;;;;;;28.69;29.83;101012.78;10370525;28;20637;-62
2022/05/09 11:03:53;;;;;;;4.35;2.55;;;;;;;28.73;30.03;101009.38;10370764;28;20038;-62
2022/05/09 11:08:57;;;;;;;4.03;2.80;;;;;;;28.39;30.74;100999.78;10367253;28;20175;-63
2022/05/09 11:14:11;;;;;;;2.53;1.95;;;;;;;28.65;30.20;101000.63;10370665;28;20055;-62
2022/05/09 11:19:48;;;;;;;3.15;2.55;;;;;;;28.75;29.94;100987.25;10372034;28;20061;-62
2022/05/09 11:25:08;;;;;;;4.72;2.03;;;;;;;28.85;30.67;100987.53;10370732;28;20052;-62
2022/05/09 11:30:13;;;;;;;;;;;;;;;28.54;30.83;100978.34;10380462;28;20087;-62
2022/05/09 11:35:30;;;;;;;5.63;2.58;;;;;;;28.96;30.27;100969.53;10371586;28;19927;-62
2022/05/09 11:40:31;;;;;;;3.65;2.15;;;;;;;29.30;29.75;100971.88;10370735;28;20156;-62
2022/05/09 11:45:35;;;;;;;4.60;2.40;;;;;;;29.55;28.79;100964.34;10372494;28;20152;-63
2022/05/09 11:50:46;;;;;;;6.60;2.40;;;;;;;29.57;28.65;100943.00;10370791;28;20459;-63
2022/05/09 11:55:48;;;;;;;5.60;1.98;;;;;;;29.61;28.46;100952.44;10369745;28;20059;-62
2022/05/09 12:00:52;;;;;;;5.80;2.15;;;;;;;29.61;27.75;100951.63;10371512;28;20504;-62
2022/05/09 12:06:02;;;;;;;3.38;1.80;;;;;;;29.46;28.81;100937.50;10380309;28;20080;-63
2022/05/09 12:11:25;;;;;;;2.33;2.13;;;;;;;29.48;27.43;100936.19;10377578;28;20063;-61
2022/05/09 12:16:34;;;;;;;4.28;2.47;;;;;;;29.54;27.61;100935.25;10369938;28;20571;-63
2022/05/09 12:21:38;;;;;;;3.92;2.15;;;;;;;29.59;29.44;100926.31;10371036;28;20600;-63
2022/05/09 12:26:43;;;;;;;3.30;2.58;;;;;;;29.57;28.18;100925.72;10370002;28;20280;-62
2022/05/09 12:31:48;;;;;;;3.25;2.42;;;;;;;29.56;28.40;100921.31;10368177;28;20075;-62
2022/05/09 12:36:51;;;;;;;6.88;2.63;;;;;;;29.58;27.49;100903.56;10366767;28;20128;-62
2022/05/09 12:41:56;;;;;;;4.82;3.10;;;;;;;29.82;28.36;100902.81;10367999;28;20049;-63
2022/05/09 12:47:13;;;;;;;3.45;2.15;;;;;;;29.42;28.35;100907.78;10367436;28;20657;-62
2022/05/09 12:52:29;;;;;;;3.80;2.47;;;;;;;29.27;28.29;100908.25;10367411;28;20053;-62
2022/05/09 12:57:35;;;;;;;3.97;2.38;;;;;;;29.09;27.85;100905.47;10371246;28;20045;-62
2022/05/09 13:02:37;;;;;;;3.33;2.22;;;;;;;28.79;28.35;100889.00;10369901;28;20045;-62
2022/05/09 13:07:59;;;;;;;3.42;2.05;;;;;;;28.99;28.10;100886.88;10369511;28;20061;-62
2022/05/09 13:13:05;;;;;;;3.30;2.08;;;;;;;28.91;27.75;100859.75;10375638;28;20596;-62
2022/05/09 13:18:07;;;;;;;3.75;2.00;;;;;;;28.62;28.21;100851.28;10375767;28;20050;-63
2022/05/09 13:23:10;;;;;;;3.78;2.42;;;;;;;28.65;28.53;100860.94;10376932;28;20056;-63
2022/05/09 13:28:19;;;;;;;2.40;2.15;;;;;;;28.47;28.05;100851.63;10375509;28;20045;-62
2022/05/09 13:33:27;;;;;;;4.40;2.47;;;;;;;28.56;27.79;100850.25;10376488;28;20139;-62
2022/05/09 13:38:37;;;;;;;3.35;1.95;;;;;;;28.44;28.89;100843.03;10374258;28;20144;-63
2022/05/09 13:43:43;;;;;;;3.25;1.70;;;;;;;28.23;28.67;100847.06;10373879;28;20045;-62
2022/05/09 13:48:51;;;;;;;3.75;2.28;;;;;;;28.18;28.16;100837.63;10373348;28;20687;-63
2022/05/09 13:53:52;;;;;;;7.32;2.88;;;;;;;28.02;28.80;100838.22;10379925;28;20128;-63
2022/05/09 13:58:58;;;;;;;3.03;1.77;;;;;;;27.67;30.01;100794.94;10375487;28;20576;-62
2022/05/09 14:04:00;;;;;;;4.78;2.55;;;;;;;27.82;29.53;100809.09;10372719;28;20054;-61
2022/05/09 14:09:09;;;;;;;3.87;1.87;;;;;;;27.83;29.51;100805.31;10374813;28;20064;-61
2022/05/09 14:14:30;;;;;;;2.28;1.65;;;;;;;27.70;28.29;100810.91;10370923;28;20063;-61
2022/05/09 14:19:37;;;;;;;2.33;1.70;;;;;;;27.48;29.34;100783.94;10371973;28;20119;-62
2022/05/09 14:30:20;;;;;;;2.40;2.00;;;;;;;27.36;30.83;100793.94;10296967;28;20045;-63
2022/05/09 14:35:43;;;;;;;3.97;2.20;;;;;;;27.12;31.15;100782.69;10376484;28;25325;-63
2022/05/09 14:40:46;;;;;;;3.70;1.98;;;;;;;26.88;31.54;100773.41;10372008;28;20132;-61
2022/05/09 14:46:01;;;;;;;4.25;2.10;;;;;;;26.86;31.72;100777.41;10373454;28;20479;-62
2022/05/09 14:51:03;;;;;;;2.60;2.28;;;;;;;26.56;31.99;100762.41;10372918;28;20049;-62
2022/05/09 15:01:27;;;;;;;4.55;2.00;;;;;;;26.58;31.15;100778.56;10371140;28;20041;-62
2022/05/09 15:06:29;;;;;;;4.13;2.10;;;;;;;26.30;31.65;100736.06;10370326;28;20076;-62
2022/05/09 15:11:31;;;;;;;2.78;2.35;;;;;;;26.43;31.74;100763.28;10371011;28;20045;-63
2022/05/09 15:16:35;;;;;;;2.30;1.90;;;;;;;26.32;31.92;100755.78;10385293;28;20053;-62
2022/05/09 15:21:37;;;;;;;2.78;2.10;;;;;;;26.29;31.54;100757.06;10370955;28;20335;-60
2022/05/09 15:26:42;;;;;;;4.35;1.98;;;;;;;26.16;31.72;100751.63;10370970;28;20053;-62
2022/05/09 15:31:44;;;;;;;3.50;2.10;;;;;;;25.91;32.14;100751.44;10370672;28;20140;-62
2022/05/09 15:36:45;;;;;;;2.35;2.08;;;;;;;25.87;32.61;100742.06;10368970;28;20061;-62
2022/05/09 15:41:48;;;;;;;2.60;2.30;;;;;;;25.71;33.03;100735.97;10372084;28;20064;-62
2022/05/09 15:46:49;;;;;;;2.13;1.90;;;;;;;25.72;33.07;100734.94;10372611;28;20049;-63
2022/05/09 15:51:51;;;;;;;2.65;2.17;;;;;;;25.62;33.12;100731.78;10375989;28;20291;-61
2022/05/09 15:56:52;;;;;;;2.85;2.00;;;;;;;25.50;33.28;100734.31;10382525;28;20117;-62
2022/05/09 16:01:54;;;;;;;5.15;2.00;;;;;;;25.45;33.29;100727.84;10371771;28;20704;-62
2022/05/09 16:12:16;;;;;;;2.85;2.10;;;;;;;25.30;33.62;100731.59;10368526;28;20129;-63
2022/05/09 16:17:19;;;;;;;3.33;1.88;;;;;;;25.09;33.52;100720.88;10377384;28;20057;-62
2022/05/09 16:22:21;;;;;;;;;;;;;;;25.19;33.60;100726.75;10376152;28;20120;-62
2022/05/09 16:27:30;;;;;;;3.90;2.20;;;;;;;25.10;33.66;100719.81;10369168;28;20047;-61
2022/05/09 16:32:36;;;;;;;2.92;2.72;;;;;;;25.11;33.47;100729.69;10367604;28;20065;-61
2022/05/09 16:37:38;;;;;;;3.35;1.90;;;;;;;25.00;33.80;100723.78;10368732;28;20061;-62
2022/05/09 16:42:43;;;;;;;2.88;1.75;;;;;;;25.00;33.57;100726.53;10372318;28;20056;-61
2022/05/09 16:47:46;;;;;;;3.65;2.25;;;;;;;24.91;33.67;100733.22;10375891;28;20591;-62
2022/05/09 16:52:47;;;;;;;4.68;2.00;;;;;;;24.89;33.91;100713.50;10373513;28;20055;-64
2022/05/09 16:57:52;;;;;;;2.60;2.40;;;;;;;24.82;33.74;100712.69;10375480;28;20049;-62
2022/05/09 17:02:53;;;;;;;2.15;1.90;;;;;;;24.75;33.82;100717.25;10375086;28;20128;-62
2022/05/09 17:07:55;;;;;;;2.63;2.10;;;;;;;24.76;33.87;100727.94;10375257;28;20053;-62
2022/05/09 17:12:58;;;;;;;3.17;2.22;;;;;;;24.73;33.78;100720.19;10376266;28;20057;-61
2022/05/09 17:18:00;;;;;;;2.97;1.88;;;;;;;24.48;34.21;100717.16;10373934;28;20049;-62
2022/05/09 17:23:01;;;;;;;2.50;2.10;;;;;;;24.49;34.47;100719.66;10375937;28;20175;-63
2022/05/09 17:28:04;;;;;;;2.53;2.20;;;;;;;24.48;34.39;100717.16;10373575;28;20127;-62
2022/05/09 17:33:06;;;;;;;2.00;1.75;;;;;;;24.44;34.19;100726.75;10374919;28;20049;-62
2022/05/09 17:38:07;;;;;;;2.43;1.80;;;;;;;24.38;35.22;100722.13;10376031;28;20045;-62
2022/05/09 17:43:09;;;;;;;2.10;1.85;;;;;;;24.30;34.76;100726.69;10373320;28;20057;-62
2022/05/09 17:48:12;;;;;;;2.58;1.92;;;;;;;24.22;34.98;100724.16;10374216;28;20148;-62
2022/05/09 17:53:13;;;;;;;2.30;2.03;;;;;;;23.87;35.17;100683.44;10373831;28;20405;-60
2022/05/09 17:58:16;;;;;;;3.10;2.53;;;;;;;24.02;35.58;100721.34;10374920;28;20175;-62
2022/05/09 18:03:18;;;;;;;2.28;1.83;;;;;;;23.95;35.65;100715.03;10372362;28;20053;-62
2022/05/09 18:08:19;;;;;;;3.33;2.30;;;;;;;23.69;35.37;100694.78;10372334;28;20064;-63
2022/05/09 18:13:24;;;;;;;2.33;2.00;;;;;;;23.58;36.34;100696.16;10372877;28;20069;-62
2022/05/09 18:18:35;;;;;;;3.40;2.72;;;;;;;23.62;36.38;100716.47;10373652;28;20808;-64
2022/05/09 18:23:36;;;;;;;2.45;2.20;;;;;;;23.51;36.85;100711.59;10372530;28;20121;-63
2022/05/09 18:28:37;;;;;;;3.20;2.25;;;;;;;23.39;37.22;100711.28;10375606;28;20099;-61
2022/05/09 18:33:39;;;;;;;2.72;1.83;;;;;;;23.31;37.59;100714.13;10374243;28;20049;-63
2022/05/09 18:38:42;;;;;;;2.95;2.10;;;;;;;23.21;37.73;100719.91;10377656;28;20057;-63
2022/05/09 18:43:47;;;;;;;3.50;2.13;;;;;;;23.06;38.32;100710.94;10379940;28;20144;-64
2022/05/09 18:52:34;;;;;;;5.55;3.85;;;;;;;22.87;38.30;100705.16;10373346;28;20674;-62
2022/05/09 18:54:10;;;;;;;2.80;2.38;;;;;;;22.92;38.88;100723.56;10373011;28;20045;-62
2022/05/09 18:59:15;;;;;;;3.25;2.80;;;;;;;22.81;38.74;100726.81;10373702;28;20049;-62
2022/05/09 19:04:16;;;;;;;3.63;2.75;;;;;;;22.68;39.40;100732.91;10372835;28;20059;-62
2022/05/09 19:09:20;;;;;;;3.03;2.25;;;;;;;22.60;39.44;100737.41;10375296;28;20046;-63
2022/05/09 19:14:25;;;;;;;2.60;2.40;;;;;;;22.48;39.77;100728.09;10373513;28;20530;-63
2022/05/09 19:19:26;;;;;;;3.25;2.45;;;;;;;22.43;40.06;100735.97;10373042;28;20075;-64
2022/05/09 19:24:27;;;;;;;3.38;2.42;;;;;;;22.35;40.82;100734.22;10373745;28;20045;-63
2022/05/09 19:29:34;;;;;;;2.83;2.55;;;;;;;22.25;40.92;100745.31;10409481;28;20061;-62
2022/05/09 19:34:38;;;;;;;3.47;2.35;;;;;;;22.17;41.38;100742.72;10384603;28;20083;-62
2022/05/09 19:39:39;;;;;;;3.97;2.63;;;;;;;22.09;41.02;100750.94;10372216;28;20144;-64
2022/05/09 19:44:49;;;;;;;4.82;2.92;;;;;;;22.00;41.74;100743.91;10375138;28;20068;-64
2022/05/09 19:49:51;;;;;;;3.28;2.25;;;;;;;21.92;41.64;100739.44;10375087;28;20045;-64
2022/05/09 19:54:53;;;;;;;3.92;2.90;;;;;;;21.80;41.40;100736.34;10372375;28;20168;-62
2022/05/09 19:59:56;;;;;;;4.70;2.80;;;;;;;21.81;42.51;100745.31;10373682;28;20087;-61
2022/05/09 20:05:04;;;;;;;3.95;3.05;;;;;;;21.73;41.91;100750.81;10372946;28;20049;-62
2022/05/09 20:10:07;;;;;;;4.17;2.70;;;;;;;21.65;41.99;100755.28;10377485;28;20049;-62
2022/05/09 20:15:10;;;;;;;3.30;2.60;;;;;;;21.59;43.10;100763.28;10375376;28;20127;-63
2022/05/09 20:20:11;;;;;;;5.22;3.75;;;;;;;21.49;43.75;100752.69;10382402;28;20080;-62
2022/05/09 20:25:15;;;;;;;3.35;2.92;;;;;;;21.47;44.22;100763.72;10381072;28;20053;-63
2022/05/09 20:30:16;;;;;;;4.90;3.03;;;;;;;21.42;44.78;100760.69;10365854;28;20063;-62
2022/05/09 20:35:18;;;;;;;4.97;3.80;;;;;;;21.33;44.19;100756.38;10372015;28;20137;-62
2022/05/09 20:40:39;;;;;;;4.15;3.75;;;;;;;21.27;45.69;100757.09;10369866;28;20046;-62
2022/05/09 20:45:41;;;;;;;4.35;3.65;;;;;;;21.11;45.49;100742.69;10371004;28;20096;-62
2022/05/09 20:50:43;;;;;;;3.58;3.25;;;;;;;21.01;46.46;100744.78;10370650;28;20714;-62
2022/05/09 20:55:44;;;;;;;5.00;4.35;;;;;;;21.00;46.02;100749.38;10370012;28;20056;-64
2022/05/09 21:00:46;;;;;;;4.00;3.70;;;;;;;20.90;46.80;100740.63;10371775;28;20045;-61
2022/05/09 21:05:48;;;;;;;5.13;4.63;;;;;;;20.81;47.32;100750.66;10380745;28;20056;-62
2022/05/09 21:11:09;;;;;;;5.53;4.28;;;;;;;20.72;47.28;100743.63;10370122;28;20045;-62
2022/05/09 21:16:10;;;;;;;7.68;4.80;;;;;;;20.69;47.48;100756.66;10370945;28;20685;-62
2022/05/09 21:21:14;;;;;;;5.55;4.72;;;;;;;20.60;47.02;100753.97;10371430;28;20136;-63
2022/05/09 21:26:15;;;;;;;5.50;4.93;;;;;;;20.54;48.14;100754.69;10371020;28;20128;-63
2022/05/09 21:31:17;;;;;;;5.93;5.32;;;;;;;20.48;48.56;100758.09;10375332;28;20053;-62
2022/05/09 21:36:23;;;;;;;5.28;4.20;;;;;;;20.39;48.88;100754.59;10375639;28;20101;-63
2022/05/09 21:41:31;;;;;;;4.63;4.22;;;;;;;20.29;48.83;100743.97;10370196;28;20512;-61
2022/05/09 21:46:34;;;;;;;4.88;3.75;;;;;;;20.26;49.52;100752.44;10375238;28;20124;-62
2022/05/09 21:51:35;;;;;;;4.95;4.22;;;;;;;20.20;50.39;100755.00;10375874;28;20108;-62
2022/05/09 21:56:37;;;;;;;5.25;4.47;;;;;;;20.12;50.71;100748.59;10376175;28;20060;-63
2022/05/09 22:01:38;;;;;;;6.05;4.05;;;;;;;20.00;50.23;100739.19;10375197;28;20142;-62
2022/05/09 22:06:40;;;;;;;6.00;4.60;;;;;;;20.00;51.17;100750.00;10375929;28;20175;-64
2022/05/09 22:11:42;;;;;;;5.25;3.95;;;;;;;19.80;51.01;100727.06;10374193;28;20053;-62
2022/05/09 22:16:44;;;;;;;4.80;4.30;;;;;;;19.87;52.04;100739.72;10375008;28;20140;-61
2022/05/09 22:21:50;;;;;;;5.13;4.63;;;;;;;19.81;52.39;100742.28;10376643;28;20061;-61
2022/05/09 22:26:52;;;;;;;5.25;4.65;;;;;;;19.74;52.78;100744.78;10377272;28;20100;-62
2022/05/09 22:31:58;;;;;;;7.35;5.65;;;;;;;19.60;53.58;100735.53;10373035;28;20129;-62
2022/05/09 22:37:22;;;;;;;5.40;4.90;;;;;;;19.57;53.67;100738.56;10374185;28;20128;-62
2022/05/09 22:42:29;;;;;;;4.35;3.95;;;;;;;19.36;54.42;100718.31;10374306;28;20059;-62
2022/05/09 22:47:32;;;;;;;4.45;4.03;;;;;;;19.47;54.30;100737.91;10373853;28;20136;-62
2022/05/09 22:52:33;;;;;;;5.40;4.93;;;;;;;19.42;55.66;100741.94;10372503;28;20045;-64
2022/05/09 22:57:40;;;;;;;5.65;5.15;;;;;;;19.38;55.20;100735.22;10376636;28;20053;-60
2022/05/09 23:02:46;;;;;;;5.20;4.70;;;;;;;19.33;55.01;100742.97;10374357;28;20058;-63
2022/05/09 23:07:48;;;;;;;5.38;4.82;;;;;;;19.25;55.56;100742.97;10374523;28;20051;-62
2022/05/09 23:12:49;;;;;;;4.70;4.30;;;;;;;19.23;56.08;100732.34;10373513;28;20049;-62
2022/05/09 23:17:52;;;;;;;6.00;4.82;;;;;;;19.19;55.97;100727.47;10374934;28;20046;-62
2022/05/09 23:22:53;;;;;;;6.25;4.30;;;;;;;19.14;55.46;100732.50;10372472;28;20500;-64
2022/05/09 23:27:55;;;;;;;5.55;4.80;;;;;;;19.02;55.99;100713.97;10380478;28;20792;-64
2022/05/09 23:32:58;;;;;;;5.20;4.68;;;;;;;19.03;56.22;100721.03;10372548;28;20052;-62
2022/05/09 23:38:00;;;;;;;5.20;4.70;;;;;;;18.98;56.22;100718.00;10373463;28;20128;-61
2022/05/09 23:43:02;;;;;;;6.22;5.07;;;;;;;18.87;56.98;100704.81;10372193;28;20145;-61
2022/05/09 23:48:03;;;;;;;6.03;5.13;;;;;;;18.90;56.69;100715.31;10374021;28;20424;-61
2022/05/09 23:53:05;;;;;;;5.60;4.70;;;;;;;18.83;57.21;100714.25;10374374;28;20080;-61